Goldberry, Missouri
Current Conditions -  °F | °C
As of 5:55 AM on Friday 21 Nov 2014 (Local Time) from KIRK Reporting Station
Clear Clear  
Wind Chill:   Ceiling: Unl
Heat Index: 17°   Visibility: 10mi
Dew Point: 11°   Wind: 8mph
Humidity: 77%   Direction: 110°ESE
Pressure: 30.32"   Gusts: NA
Location:  39.9344°N, 92.7744°W
Report Text: KIRK 211155Z AUTO 11007KT 10SM CLR M08/M12 A3032 RMK AO2 SLP286 T10831117 11072 21089 56004
Loading
Personal Weather Stations






























Interactive Weather Map New forecast layout! Learn more

10-Day Weather Forecast

Advertisements
Track Severe Weather on mobile